US1GBF-1 messages


fromtotime message
US1GBF-1 US1GHQ 10/14 17:58:10z Send another kak prohodat moi sms?{88
US1GBF-1 US1GHQ 10/14 17:55:51z Send another privet{87
US1GHQ US1GBF-1 10/14 17:47:24z Reply ?{1
US1GBF-1 US1GHQ-1 10/14 17:42:49z Send another privet{86
WXBOT US1GBF-1 10/14 14:35:41z Reply UR5FSV-2 64,wind:calm,1023.2mbar,rh:73%,rain:none{TQ
US1GBF-1 WXBOT 10/14 14:35:34z Send another cwop{85
WHO-IS US1GBF-1 10/14 13:14:04z Reply US1GBF:Kherson Kh Ukraine{463
WHO-IS US1GBF-1 10/14 13:14:04z Reply US1GBF:Pavel A. Sirenko/2{461
WHO-IS US1GBF-1 10/14 13:14:04z Reply US1GBF:Gmyr'ova st, 4-A, flat № 26{462
US1GBF-1 WHO-IS 10/14 13:12:26z Send another f US1GBF{83
WXBOT US1GBF-1 10/14 13:06:41z Reply UKOH 141300Z 23003MPS 160V280 CAVOK 21/10 Q1024 R21/CLRD// NOSIG{TO
US1GBF-1 WXBOT 10/14 13:06:34z Send another metar{82
US1GBF-1 US1GBF-7 10/14 06:04:52z Send another hello test{81
US1GBF-1 US1GB-7 10/11 15:27:41z Send another N:UKRSAR test msg
US1GBF-1 ANSRVR 10/11 15:27:40z Send another CQ UKRSAR test msg{80
US1GBF-7 US1GBF-1 10/11 07:08:20z Reply N:UKRSAR METAR UKOH 110700Z 35003MPS 9999 BKN040CB 12/11 Q1018 R03
US1GBF-7 US1GBF-1 10/11 06:59:31z Reply N:UKRSAR Test system 4
US1GBF-7 US1GBF-1 10/11 06:58:36z Reply N:UKRSAR Test system 3
US1GBF-7 US1GBF-1 10/11 06:57:28z Reply N:UKRSAR Test system 2
US1GB-7 US1GBF-1 10/11 06:56:11z Reply N:UKRSAR Test system
US1GBF-7 US1GBF-1 10/11 02:46:24z Reply N:UKRSAR METAR UKOH 110230Z 36005MPS 9000 -SHRA BKN009 BKN014CB 13
US1GBF-1 US7GN-1 10/10 17:33:01z Send another hello!{79
US1GBF-1 US7GN-1 10/10 17:31:40z Send another ?APRST
US1GBF-7 US1GBF-1 10/10 09:20:03z Reply N:UKRSAR TAF UKOH TEMPO 1009/1018 3100 -SHRA BR BKN005 BKN015CB
US1GBF-7 US1GBF-1 10/10 08:56:18z Reply N:UKRSAR TAF UKOH 100803Z 1009/1018 18008G15MPS 9999 BKN008 BKN020
US1GBF-7 US1GBF-1 10/10 02:47:58z Reply N:UKRSAR METAR UKOH 100230Z 14004MPS CAVOK 10/10 Q1017 NOSIG
US1GBF-7 US1GBF-1 10/09 18:19:09z Reply N:UKRSAR TAF
US1GBF-7 US1GBF-1 10/09 18:16:45z Reply N:UKRSAR TAF UKOH 091702Z 0918/1003 18005G10MPS 9999 BKN030
US1GBF-7 US1GBF-1 10/09 18:15:24z Reply N:UKRSAR Metar
ANSRVR US1GBF-1 10/09 17:35:08z Reply N:UKRSAR 2 Messages Sent
US1GBF-1 UR5ZFQ-9 10/09 17:35:08z Send another N:UKRSAR BKN020CB
US1GBF-1 UR5ZFQ-9 10/09 17:35:08z Send another N:UKRSAR TAF UKON 091103Z 0912/0921 19009G17MPS 9999 BKN007+
US1GBF-1 ANSRVR 10/09 17:35:07z Send another CQ UKRSAR TAF UKON 091103Z 0912/0921 19009G17MPS 9999 BKN007 BKN020CB{78
UR5ZFQ-9 US1GBF-1 10/09 17:21:00z Reply Nosig это нет сигнала от датчика вроде{3
US1GBF-1 UR5ZFQ-9 10/09 17:20:29z Send another N:UKRSAR R21/CLRD// NOSIG
US1GBF-1 UR5ZFQ-9 10/09 17:20:29z Send another N:UKRSAR METAR UKOH 091700Z 19006MPS 9999 BKN037 13/07 Q1020+
US1GBF-1 ANSRVR 10/09 17:20:29z Send another CQ UKRSAR METAR UKOH 091700Z 19006MPS 9999 BKN037 13/07 Q1020 R21/CLRD// NOSIG{77
US1GBF-1 UR5ZFQ-9 10/09 17:13:59z Send another N:UKRSAR eto prognoz po xersonu
US1GBF-1 ANSRVR 10/09 17:13:59z Send another CQ ukrsar eto prognoz po xersonu{76
UR5ZFQ-9 US1GBF-1 10/09 17:12:33z Reply Polucheno N:UKRSAR TAF UKOH 091402Z 0915/0924 20006G12MPS 9999 BKN0{2
US1GBF-1 UR5ZFQ-9 10/09 17:12:07z Send another N:UKRSAR TAF UKOH 091402Z 0915/0924 20006G12MPS 9999 BKN030
US1GBF-1 ANSRVR 10/09 17:12:07z Send another CQ UKRSAR TAF UKOH 091402Z 0915/0924 20006G12MPS 9999 BKN030{75
ANSRVR US1GBF-1 10/09 17:05:31z Reply 3 Members In UKRSAR
ANSRVR US1GBF-1 10/09 17:05:31z Reply Members[UKRSAR]: US1GBF-1 US1GBF-7 UR5ZFQ-9
ANSRVR US1GBF-1 10/09 17:05:31z Reply (Send D UKRSAR to change)
ANSRVR US1GBF-1 10/09 17:05:31z Reply Own:US1GBF-1
ANSRVR US1GBF-1 10/09 17:05:30z Reply UKRSAR(3) Ukrainian ham radio Search and Rescue service+
US1GBF-1 ANSRVR 10/09 17:05:30z Send another D UKRSAR{74
UR5ZFQ-9 US1GBF-1 10/09 17:05:02z Reply N:UKRAMATEUR UR5ZFQ MONITORING
US1GBF-1 UR5ZFQ-9 10/09 17:04:35z Send another N:UKRSAR ok qsl
US1GBF-1 ANSRVR 10/09 17:04:35z Send another CQ UKRSAR ok qsl{73
UR5ZFQ-9 US1GBF-1 10/09 17:03:42z Reply N:UKRSAR UR5ZFQ strong winds in Mykolaiv region
ANSRVR US1GBF-1 10/09 17:03:34z Reply N:SAR New Group Description(norm prohodit!)
US1GBF-1 ANSRVR 10/09 17:03:34z Send another CQ SAR norm prohodit!{72
US1GBF-1 ANSRVR 10/09 17:03:08z Send another normalno prohodit{71
UR5ZFQ-9 US1GBF-1 10/09 17:03:03z Reply Hello{1
UR5ZFQ-9 US1GBF-1 10/09 17:02:38z Reply N:UKRSAR UR5ZFQ a kak ya poluchu soobschenia?
US1GBF-1 UR5ZFQ-9 10/09 17:02:37z Send another N:UKRSAR hello to All
US1GBF-1 ANSRVR 10/09 17:02:37z Send another CQ UKRSAR hello to All{70
UR5ZFQ-9 US1GBF-1 10/09 17:02:18z Reply N:UKRSAR UR5ZFQ tolko latinitsej znachit
UR5ZFQ-9 US1GBF-1 10/09 17:01:21z Reply N:UKRSAR UR5ZFQ
UR5ZFQ-9 US1GBF-1 10/09 16:59:57z Reply N:UKRAMATEUR мониторинге
UR5ZFQ-9 US1GBF-1 10/09 16:59:57z Reply N:UKRAMATEUR теперь и я на+
ANSRVR US1GBF-1 10/09 16:41:48z Reply service)
ANSRVR US1GBF-1 10/09 16:41:48z Reply Group(UKRSAR) Description(Ukrainian ham radio Search and Rescue+
US1GBF-1 ANSRVR 10/09 16:41:48z Send another D UKRSAR Ukrainian ham radio Search and Rescue service{69
ANSRVR US1GBF-1 10/09 16:18:31z Reply N:UKRSAR Send D UKRSAR
US1GBF-1 ANSRVR 10/09 16:18:31z Send another CQ UKRSAR{68
US1GBF-1 US1GBF-7 10/09 15:20:23z Send another [AA] I am not at keyboard{67
US1GBF-7 US1GBF-1 10/09 15:20:20z Reply Auto answer test{2
US1GBF-1 US1GBF-7 10/09 15:19:35z Send another [AA] I am not at keyboard{66
ANSRVR US1GBF-1 10/09 13:29:05z Reply N:UKRAMATEUR Now Monitoring
US1GBF-1 ANSRVR 10/09 13:29:04z Send another CQ UKRAMATEUR{65
ANSRVR US1GBF-1 10/09 13:26:57z Reply Also:WEATHER(1) WESTCENTRALWISC(1) WM(1) WX(1)
ANSRVR US1GBF-1 10/09 13:26:57z Reply Also:SKYWARN(2) SOPRON(1) TRUCKERS(1) U(1) UNICAM(2) VELOCITY(1)+
ANSRVR US1GBF-1 10/09 13:26:57z Reply Also:SARES(1) SATELLITE(1) SCARSVOIP(2) SIBIU(1) SKYWARM(1)+
ANSRVR US1GBF-1 10/09 13:26:57z Reply Also:RESEND(1) O:ROKETS(1) RPPNET(1) RPRSVR(1) RRPNET(1) RUSSIA(1)+
ANSRVR US1GBF-1 10/09 13:26:57z Reply Also:EA5GFY(1) ECHOLINK(2) EMCOM(1) EX(1) FJCRUISER(1)+
ANSRVR US1GBF-1 10/09 13:26:56z Reply UKRAMATEUR(1) Ukrainian amateur radio talks Own:US1GBF-7
ANSRVR US1GBF-1 10/09 13:26:56z Reply TEXAS(1) Group for stations residing in Texas. Own:N5BRJ
ANSRVR US1GBF-1 10/09 13:26:55z Reply ANSRVR(2) CQ ITM Hello Own:KG7IVO
US1GBF-1 ANSRVR 10/09 13:26:54z Send another D{64
ANSRVR US1GBF-1 10/09 13:26:31z Reply N:ROCKETS Already Removed
US1GBF-1 ANSRVR 10/09 13:26:30z Send another U ROCKETS{63
ANSRVR US1GBF-1 10/09 13:25:45z Reply Member Of O:APRSINUA(1) O:ROKETS(1)
US1GBF-1 ANSRVR 10/09 13:25:44z Send another L{62
CQSRVR US1GBF-1 10/09 13:25:22z Reply No active groups.{1182
US1GBF-1 CQSRVR 10/09 13:25:22z Send another L{61
CQSRVR US1GBF-1 10/09 13:25:08z Reply No text in message.{1181
US1GBF-1 CQSRVR 10/09 13:25:08z Send another D{60
ANSRVR US1GBF-1 10/09 03:45:39z Reply N:ROCKETS Removed From Group
ANSRVR US1GBF-1 10/08 23:34:02z Reply N:UKRAMATEUR Removed From Group
ANSRVR US1GBF-1 10/08 16:13:16z Reply N:SPB Removed From Group
US1GBF-1 ANSRVR 10/08 16:13:15z Send another U SPB{59
ANSRVR US1GBF-1 10/08 16:12:40z Reply Now Monitoring SPB
US1GBF-1 ANSRVR 10/08 16:12:39z Send another K SPB{58
ANSRVR US1GBF-1 10/08 15:45:17z Reply N:ROCKETS Now Monitoring
US1GBF-1 ANSRVR 10/08 15:45:16z Send another J ROCKETS{57
ANSRVR US1GBF-1 10/08 15:44:19z Reply N:ROKETS Send D ROKETS
US1GBF-1 ANSRVR 10/08 15:44:18z Send another J ROKETS{56